Terminal Aerodrome Forecast
Issued by NWS North Platte, NE

Home | Current Version | Previous Version | Graphics & Text | Print | Product List | Glossary On
Versions: 1 2 3 4 5 6 7 8 9 10 11 12 13 14 15 16 17 18 19 20 21
000
FTUS43 KLBF 161300 AAB
TAFVTN
TAF AMD
KVTN 161348Z 1614/1712 32014G23KT P6SM SCT015 BKN035
      TEMPO 1614/1616 4SM -SHRA BKN015
     FM161600 33021G32KT P6SM OVC016
      TEMPO 1620/1624 SCT016
     FM170000 36012KT P6SM SCT016=

USA.gov is the U.S. government's official web portal to all federal, state and local government web resources and services.